ADDS METAR Data INFO
IDs: Format: Raw Decoded Include TAF

Data at: 0221 UTC 14 Dec 2017

KLRU 140215Z AUTO 25003KT 10SM CLR 06/M09 A3003 RMK AO2 T00591095
KLRU 140155Z AUTO 26005KT 10SM CLR 07/M09 A3003 RMK AO2 T00741090
KLRU 140135Z AUTO 26006KT 10SM CLR 09/M09 A3003 RMK AO2 T00861087
KLRU 140115Z AUTO 26005KT 10SM CLR 10/M08 A3003 RMK AO2 T00991085
KLRU 140055Z AUTO 25006KT 10SM CLR 11/M08 A3003 RMK AO2 T01081082
KLRU 140035Z AUTO 24006KT 10SM CLR 11/M08 A3003 RMK AO2 T01091085
KLRU 140015Z AUTO 25006KT 10SM CLR 12/M08 A3003 RMK AO2 T01231082
KLRU 132355Z AUTO 25005KT 10SM CLR 15/M08 A3003 RMK AO2 T01451081 10172 20116
KLRU 132335Z AUTO 26005KT 10SM CLR 16/M08 A3003 RMK AO2 T01601080
KLRU 132315Z AUTO 26005KT 10SM CLR 17/M08 A3003 RMK AO2 T01651080
KLRU 132255Z AUTO 24005KT 10SM CLR 17/M08 A3004 RMK AO2 T01711080
KLRU 132235Z AUTO 24004KT 10SM CLR 17/M08 A3005 RMK AO2 T01701080
KLRU 132215Z AUTO 27005KT 10SM CLR 17/M08 A3005 RMK AO2 T01691082
KLRU 132155Z AUTO 28003KT 10SM CLR 17/M09 A3005 RMK AO2 T01711087
KLRU 132135Z AUTO 24004KT 10SM CLR 17/M09 A3006 RMK AO2 T01711092
KLRU 132115Z AUTO 00000KT 10SM CLR 17/M10 A3007 RMK AO2 T01651101
KLRU 132055Z AUTO 11003KT 10SM CLR 16/M11 A3008 RMK AO2 T01611108
KLRU 132035Z AUTO 15004KT 10SM CLR 16/M11 A3009 RMK AO2 T01611109
KLRU 132015Z AUTO 00000KT 10SM CLR 16/M11 A3010 RMK AO2 T01571110
KLRU 131955Z AUTO 00000KT 10SM CLR 15/M11 A3010 RMK AO2 T01461112
KLRU 131935Z AUTO 00000KT 10SM CLR 15/M11 A3012 RMK AO2 T01451113
KLRU 131915Z AUTO 23003KT 10SM CLR 14/M11 A3013 RMK AO2 T01391115
KLRU 131855Z AUTO 00000KT 10SM CLR 14/M12 A3014 RMK AO2 T01401116
KLRU 131835Z AUTO 00000KT 10SM CLR 13/M12 A3016 RMK AO2 T01271118
KLRU 131815Z AUTO 00000KT 10SM CLR 12/M12 A3017 RMK AO2 T01211122
KLRU 131755Z AUTO 07003KT 10SM CLR 12/M12 A3019 RMK AO2 T01191118 10119 21022
KLRU 131735Z AUTO 00000KT 10SM CLR 11/M12 A3019 RMK AO2 T01061116
KLRU 131715Z AUTO 00000KT 10SM CLR 10/M12 A3020 RMK AO2 T00951117
KLRU 131655Z AUTO 10003KT 10SM CLR 09/M11 A3020 RMK AO2 T00911115
KLRU 131635Z AUTO 00000KT 10SM CLR 08/M12 A3020 RMK AO2 T00761117
KLRU 131615Z AUTO 16003KT 10SM CLR 07/M12 A3020 RMK AO2 T00651120
KLRU 131555Z AUTO 00000KT 10SM CLR 05/M12 A3020 RMK AO2 T00471122
KLRU 131535Z AUTO 00000KT 10SM CLR 03/M13 A3020 RMK AO2 T00301126
KLRU 131515Z AUTO 10003KT 10SM CLR 05/M12 A3020 RMK AO2 T00491116
KLRU 131455Z AUTO 00000KT 10SM CLR 02/M12 A3020 RMK AO2 T00221124
KLRU 131435Z AUTO 30003KT 10SM CLR 00/M12 A3020 RMK AO2 T00021125
KLRU 131415Z AUTO 32005KT 10SM CLR M02/M12 A3019 RMK AO2 T10161125
KLRU 131355Z AUTO 33006KT 10SM CLR M02/M13 A3019 RMK AO2 T10211129
KLRU 131335Z AUTO 33006KT 10SM CLR M01/M13 A3018 RMK AO2 T10061129
KLRU 131315Z AUTO 33007KT 10SM CLR M01/M13 A3018 RMK AO2 T10101130
KLRU 131255Z AUTO 33007KT 10SM CLR M01/M13 A3018 RMK AO2 T10151129
KLRU 131235Z AUTO 32007KT 10SM CLR M02/M13 A3018 RMK AO2 T10161130
KLRU 131215Z AUTO 32007KT 10SM CLR M01/M13 A3018 RMK AO2 T10151127
KLRU 131155Z AUTO 31005KT 10SM CLR M02/M13 A3018 RMK AO2 70003 T10171127 11002 21021
KLRU 131135Z AUTO 32006KT 10SM CLR M02/M12 A3019 RMK AO2 T10171125
KLRU 131115Z AUTO 33005KT 10SM CLR M01/M12 A3019 RMK AO2 T10141121
KLRU 131055Z AUTO 32006KT 10SM CLR M01/M12 A3020 RMK AO2 T10111117
KLRU 131035Z AUTO 32005KT 10SM CLR M01/M12 A3021 RMK AO2 T10081118
KLRU 131015Z AUTO 36004KT 10SM CLR M01/M12 A3021 RMK AO2 T10081119
KLRU 130955Z AUTO 34005KT 10SM CLR M01/M12 A3021 RMK AO2 T10151123
KLRU 130935Z AUTO 00000KT 10SM CLR M01/M13 A3021 RMK AO2 T10151126
KLRU 130915Z AUTO 02003KT 10SM CLR M01/M12 A3022 RMK AO2 T10111125
KLRU 130855Z AUTO 03003KT 10SM CLR M01/M12 A3022 RMK AO2 T10081125
KLRU 130835Z AUTO 35003KT 10SM CLR 00/M12 A3023 RMK AO2 T10041125
KLRU 130815Z AUTO 34005KT 10SM CLR M01/M13 A3024 RMK AO2 T10101127
KLRU 130755Z AUTO 33003KT 10SM CLR M01/M13 A3025 RMK AO2 T10071126
KLRU 130735Z AUTO 34003KT 10SM CLR M01/M13 A3025 RMK AO2 T10131127
KLRU 130715Z AUTO 32003KT 10SM CLR M01/M13 A3026 RMK AO2 T10151130
KLRU 130655Z AUTO 32004KT 10SM CLR M01/M13 A3026 RMK AO2 T10061130
KLRU 130635Z AUTO 33004KT 10SM CLR M01/M13 A3026 RMK AO2 T10151133
KLRU 130615Z AUTO 30003KT 10SM CLR M02/M14 A3027 RMK AO2 T10171136
KLRU 130555Z AUTO 00000KT 10SM CLR M02/M14 A3028 RMK AO2 T10191136 10123 21025
KLRU 130535Z AUTO 00000KT 10SM CLR M02/M14 A3029 RMK AO2 T10241138
KLRU 130515Z AUTO 26003KT 10SM CLR M02/M14 A3029 RMK AO2 T10191139
KLRU 130455Z AUTO 27003KT 10SM CLR M02/M14 A3030 RMK AO2 T10191143
KLRU 130435Z AUTO 00000KT 10SM CLR M01/M14 A3030 RMK AO2 T10101140
KLRU 130415Z AUTO 00000KT 10SM CLR 00/M14 A3030 RMK AO2 T10011139
KLRU 130355Z AUTO 00000KT 10SM CLR M01/M14 A3031 RMK AO2 T10101141
KLRU 130335Z AUTO 00000KT 10SM CLR 01/M13 A3032 RMK AO2 T00121132
KLRU 130315Z AUTO 00000KT 10SM CLR 03/M13 A3032 RMK AO2 T00261130
KLRU 130255Z AUTO 15004KT 10SM CLR 07/M12 A3032 RMK AO2 T00691123
KLRU 130235Z AUTO 17003KT 10SM CLR 08/M12 A3032 RMK AO2 T00761120
KLRU 130215Z AUTO 16005KT 10SM CLR 08/M12 A3032 RMK AO2 T00771120
KLRU 130155Z AUTO 18005KT 10SM CLR 08/M12 A3032 RMK AO2 T00791118
KLRU 130135Z AUTO 18005KT 10SM CLR 08/M12 A3032 RMK AO2 T00841118
KLRU 130115Z AUTO 17004KT 10SM CLR 09/M12 A3033 RMK AO2 T00901120
KLRU 130055Z AUTO 16005KT 10SM CLR 09/M12 A3033 RMK AO2 T00861122
KLRU 130035Z AUTO 16005KT 10SM CLR 09/M12 A3032 RMK AO2 T00941125
KLRU 130015Z AUTO 14005KT 10SM CLR 10/M12 A3032 RMK AO2 T01041125
KLRU 122355Z AUTO 13006KT 10SM CLR 13/M13 A3032 RMK AO2 60003 T01251126 10160 20110
KLRU 122335Z AUTO 13005KT 10SM CLR 14/M12 A3033 RMK AO2 T01391125
KLRU 122315Z AUTO 14006KT 10SM CLR 15/M12 A3034 RMK AO2 T01461123
KLRU 122255Z AUTO 13008KT 10SM CLR 15/M12 A3034 RMK AO2 P0003 T01501125
KLRU 122235Z AUTO 14006KT 10SM CLR 16/M12 A3035 RMK AO2 P0003 T01561123
KLRU 122215Z AUTO 12010KT 10SM TS CLR 15/M14 A3035 RMK AO2 LTG DSNT ALQS P0003 T01471136
KLRU 122135Z AUTO 12007KT 10SM CLR 15/M13 A3036 RMK AO2 T01481134
KLRU 122115Z AUTO 13008G15KT 10SM CLR 15/M13 A3037 RMK AO2 T01481134
KLRU 122055Z AUTO 14009G15KT 10SM CLR 15/M13 A3038 RMK AO2 T01461132
KLRU 122035Z AUTO 14009KT 10SM CLR 15/M13 A3039 RMK AO2 T01471132
KLRU 122015Z AUTO 11009G15KT 10SM CLR 15/M13 A3040 RMK AO2 T01451131
KLRU 121955Z AUTO 13010KT 10SM CLR 14/M13 A3041 RMK AO2 T01401130
KLRU 121935Z AUTO 12010G16KT 10SM CLR 14/M13 A3043 RMK AO2 T01381132
KLRU 121915Z AUTO 12011G17KT 10SM CLR 14/M13 A3044 RMK AO2 T01361130
KLRU 121855Z AUTO 12010KT 10SM CLR 14/M13 A3045 RMK AO2 T01351130
KLRU 121835Z AUTO 11008KT 10SM CLR 13/M13 A3047 RMK AO2 T01271131
KLRU 121815Z AUTO 12007KT 10SM CLR 12/M13 A3049 RMK AO2 T01171135
KLRU 121755Z AUTO 12006KT 10SM CLR 11/M14 A3051 RMK AO2 T01081138 10108 21016
KLRU 121735Z AUTO 11003KT 10SM CLR 10/M14 A3051 RMK AO2 T00991142
KLRU 121715Z AUTO 10005KT 10SM CLR 10/M14 A3051 RMK AO2 T00971145
KLRU 121655Z AUTO 09003KT 10SM CLR 09/M14 A3051 RMK AO2 T00921145
KLRU 121635Z AUTO 12003KT 10SM CLR 08/M15 A3051 RMK AO2 T00841150
KLRU 121615Z AUTO 06003KT 10SM CLR 07/M15 A3050 RMK AO2 T00671150
KLRU 121555Z AUTO 00000KT 10SM CLR 06/M15 A3050 RMK AO2 T00591148
KLRU 121535Z AUTO 23003KT 10SM CLR 05/M15 A3049 RMK AO2 T00491148
KLRU 121515Z AUTO 24003KT 10SM CLR 03/M15 A3049 RMK AO2 T00331154
KLRU 121455Z AUTO 24003KT 10SM CLR 03/M15 A3048 RMK AO2 T00261155
KLRU 121435Z AUTO 30004KT 10SM CLR 01/M16 A3048 RMK AO2 T00051159